createdAt,value
2022-08-03T00:01:41.030Z,0.70
2022-08-03T00:04:09.718Z,0.73
2022-08-03T00:06:37.356Z,0.95
2022-08-03T00:09:07.773Z,0.93
2022-08-03T00:11:35.546Z,0.63
2022-08-03T00:14:06.572Z,0.52
2022-08-03T00:16:33.706Z,0.50
2022-08-03T00:19:02.436Z,0.55
2022-08-03T00:21:29.859Z,0.75
2022-08-03T00:23:56.991Z,0.77
2022-08-03T00:26:23.902Z,0.52
2022-08-03T00:28:50.946Z,0.60
2022-08-03T00:31:23.057Z,0.60
2022-08-03T00:34:05.121Z,0.60
2022-08-03T00:36:33.160Z,0.55
2022-08-03T00:39:00.107Z,0.73
2022-08-03T00:41:27.294Z,0.80
2022-08-03T00:43:54.266Z,0.50
2022-08-03T00:46:22.453Z,0.50
2022-08-03T00:48:53.923Z,0.60
2022-08-03T00:51:22.360Z,0.50
2022-08-03T00:53:50.895Z,0.63
2022-08-03T00:56:18.498Z,0.60
2022-08-03T00:58:46.821Z,0.60
2022-08-03T01:01:15.012Z,0.70
2022-08-03T01:03:42.675Z,0.60
2022-08-03T01:07:17.441Z,0.63
2022-08-03T01:10:03.137Z,0.80
2022-08-03T01:12:39.565Z,0.57
2022-08-03T01:15:20.934Z,0.50
2022-08-03T01:17:57.415Z,0.60
2022-08-03T01:20:30.762Z,0.60
2022-08-03T01:23:17.489Z,0.63
2022-08-03T01:26:18.071Z,0.60
2022-08-03T01:29:49.721Z,0.63
2022-08-03T01:32:58.670Z,0.80
2022-08-03T01:35:32.755Z,0.50
2022-08-03T01:38:10.085Z,0.53
2022-08-03T01:40:41.192Z,0.80
2022-08-03T01:43:12.675Z,0.45
2022-08-03T01:45:43.545Z,0.52
2022-08-03T01:48:15.848Z,0.70
2022-08-03T01:50:45.139Z,0.70
2022-08-03T01:53:16.946Z,0.50
2022-08-03T01:55:48.793Z,0.55
2022-08-03T01:58:19.890Z,0.55
2022-08-03T02:00:50.200Z,0.52
2022-08-03T02:03:20.152Z,0.50
2022-08-03T02:05:57.201Z,0.40
2022-08-03T02:08:34.219Z,0.60
2022-08-03T02:11:02.675Z,0.60
2022-08-03T02:13:32.028Z,0.43
2022-08-03T02:15:59.697Z,0.65
2022-08-03T02:18:28.837Z,0.40
2022-08-03T02:20:57.248Z,0.50
2022-08-03T02:23:24.186Z,0.50
2022-08-03T02:25:58.256Z,0.50
2022-08-03T02:28:38.450Z,0.63
2022-08-03T02:31:12.928Z,0.77
2022-08-03T02:33:48.999Z,0.85
2022-08-03T02:36:19.070Z,0.50
2022-08-03T02:38:51.283Z,0.50
2022-08-03T02:41:24.844Z,0.57
2022-08-03T02:44:06.033Z,0.60
2022-08-03T02:46:39.086Z,0.55
2022-08-03T02:49:42.138Z,0.47
2022-08-03T02:51:56.834Z,0.52
2022-08-03T02:54:26.855Z,0.70
2022-08-03T02:56:58.549Z,0.50
2022-08-03T02:59:28.303Z,0.50
2022-08-03T03:01:55.797Z,0.38
2022-08-03T03:04:24.956Z,0.82
2022-08-03T03:07:01.861Z,0.73
2022-08-03T03:09:40.359Z,0.73
2022-08-03T03:12:12.582Z,0.60
2022-08-03T03:14:42.545Z,0.63
2022-08-03T03:17:11.688Z,0.70
2022-08-03T03:19:40.928Z,0.80
2022-08-03T03:22:09.665Z,0.70
2022-08-03T03:24:39.940Z,0.68
2022-08-03T03:27:08.028Z,0.70
2022-08-03T03:29:38.464Z,0.63
2022-08-03T03:32:12.534Z,0.70
2022-08-03T03:34:39.849Z,0.50
2022-08-03T03:37:11.244Z,0.43
2022-08-03T03:39:38.166Z,0.55
2022-08-03T03:42:05.577Z,0.80
2022-08-03T03:44:32.582Z,0.50
2022-08-03T03:46:59.940Z,0.68
2022-08-03T03:49:27.033Z,0.65
2022-08-03T03:51:55.439Z,0.68
2022-08-03T03:54:22.518Z,0.68
2022-08-03T03:56:52.717Z,0.55
2022-08-03T03:59:19.667Z,0.50
2022-08-03T04:01:46.858Z,0.63
2022-08-03T04:04:43.690Z,0.95
2022-08-03T04:07:29.249Z,0.65
2022-08-03T04:10:15.989Z,0.75
2022-08-03T04:12:50.062Z,0.80
2022-08-03T04:15:22.243Z,0.52
2022-08-03T04:17:52.515Z,0.60
2022-08-03T04:20:22.122Z,0.60
2022-08-03T04:22:52.890Z,0.60
2022-08-03T04:25:25.688Z,0.60
2022-08-03T04:28:08.009Z,0.70
2022-08-03T04:30:51.710Z,0.68
2022-08-03T04:33:21.366Z,0.60
2022-08-03T04:36:01.657Z,0.68
2022-08-03T04:38:38.984Z,0.52
2022-08-03T04:41:07.977Z,0.77
2022-08-03T04:43:36.597Z,0.70
2022-08-03T04:46:05.177Z,0.57
2022-08-03T04:48:32.326Z,0.68
2022-08-03T04:51:00.833Z,0.60
2022-08-03T04:53:27.812Z,1.08
2022-08-03T04:55:54.631Z,0.60
2022-08-03T04:58:21.476Z,0.82
2022-08-03T05:00:51.270Z,0.50
2022-08-03T05:03:20.406Z,0.43
2022-08-03T05:05:53.584Z,0.65
2022-08-03T05:08:29.442Z,0.50
2022-08-03T05:10:59.361Z,0.70
2022-08-03T05:13:26.729Z,0.73
2022-08-03T05:15:53.655Z,0.57
2022-08-03T05:18:21.454Z,0.70
2022-08-03T05:20:48.414Z,0.60
2022-08-03T05:23:18.787Z,0.68
2022-08-03T05:25:49.728Z,0.90
2022-08-03T05:28:17.188Z,0.70
2022-08-03T05:30:46.477Z,0.60
2022-08-03T05:33:13.763Z,0.50
2022-08-03T05:35:57.603Z,1.23
2022-08-03T05:38:34.170Z,0.80
2022-08-03T05:41:22.540Z,0.80
2022-08-03T05:43:53.696Z,1.25
2022-08-03T05:46:22.200Z,1.00
2022-08-03T05:48:49.408Z,1.10
2022-08-03T05:51:16.761Z,0.70
2022-08-03T05:53:44.481Z,1.02
2022-08-03T05:56:15.045Z,0.80
2022-08-03T05:58:52.714Z,1.02
2022-08-03T06:01:24.488Z,0.95
2022-08-03T06:03:52.233Z,0.95
2022-08-03T06:06:19.407Z,0.70
2022-08-03T06:08:48.775Z,0.75
2022-08-03T06:11:16.525Z,0.70
2022-08-03T06:13:44.485Z,1.25
2022-08-03T06:16:11.597Z,0.60
2022-08-03T06:18:40.399Z,0.70
2022-08-03T06:21:14.124Z,0.68
2022-08-03T06:23:54.810Z,0.80
2022-08-03T06:26:24.486Z,0.70
2022-08-03T06:28:53.951Z,0.50
2022-08-03T06:31:25.942Z,0.50
2022-08-03T06:34:34.507Z,0.50
2022-08-03T06:36:48.478Z,0.55
2022-08-03T06:39:15.389Z,0.60
2022-08-03T06:41:44.699Z,0.60
2022-08-03T06:44:12.757Z,0.60
2022-08-03T06:46:40.041Z,0.50
2022-08-03T06:49:08.064Z,0.43
2022-08-03T06:52:06.107Z,0.40
2022-08-03T06:54:22.336Z,0.70
2022-08-03T06:56:49.299Z,0.50
2022-08-03T07:00:06.415Z,0.38
2022-08-03T07:02:03.227Z,0.57
2022-08-03T07:04:30.226Z,0.73
2022-08-03T07:06:57.253Z,0.50
2022-08-03T07:09:24.371Z,0.43
2022-08-03T07:11:51.212Z,0.55
2022-08-03T07:14:18.313Z,0.50
2022-08-03T07:16:45.214Z,0.40
2022-08-03T07:19:12.284Z,0.60
2022-08-03T07:21:39.268Z,0.50
2022-08-03T07:24:06.509Z,0.60
2022-08-03T07:26:33.415Z,0.68
2022-08-03T07:29:01.504Z,0.82
2022-08-03T07:31:28.455Z,0.60
2022-08-03T07:34:01.429Z,0.88
2022-08-03T07:36:28.378Z,0.50
2022-08-03T07:38:55.271Z,0.43
2022-08-03T07:41:22.279Z,0.52
2022-08-03T07:43:49.206Z,0.40
2022-08-03T07:46:16.234Z,0.63
2022-08-03T07:48:43.121Z,0.50
2022-08-03T07:51:09.991Z,0.60
2022-08-03T07:53:37.822Z,0.50
2022-08-03T07:56:14.335Z,0.40
2022-08-03T07:58:41.193Z,0.30
2022-08-03T08:01:08.350Z,0.40
2022-08-03T08:03:52.309Z,0.47
2022-08-03T08:06:21.886Z,0.50
2022-08-03T08:08:48.816Z,0.50
2022-08-03T08:11:16.003Z,0.50
2022-08-03T08:13:42.971Z,0.43
2022-08-03T08:16:09.903Z,0.43
2022-08-03T08:18:36.737Z,0.55
2022-08-03T08:21:03.736Z,0.47
2022-08-03T08:23:42.428Z,0.40
2022-08-03T08:26:11.444Z,0.40
2022-08-03T08:28:38.395Z,0.50
2022-08-03T08:31:05.306Z,0.40
2022-08-03T08:34:03.511Z,0.30
2022-08-03T08:36:20.199Z,0.30
2022-08-03T08:38:47.612Z,0.30
2022-08-03T08:41:16.506Z,0.90
2022-08-03T08:43:43.693Z,0.40
2022-08-03T08:46:23.274Z,0.20
2022-08-03T08:48:53.620Z,0.40
2022-08-03T08:51:22.680Z,0.40
2022-08-03T08:53:54.466Z,0.40
2022-08-03T08:56:26.005Z,0.30
2022-08-03T08:58:59.440Z,0.22
2022-08-03T09:01:27.655Z,0.40
2022-08-03T09:03:55.154Z,0.35
2022-08-03T09:06:23.525Z,0.20
2022-08-03T09:08:50.496Z,0.25
2022-08-03T09:11:53.332Z,0.50
2022-08-03T09:14:36.698Z,0.30
2022-08-03T09:17:02.220Z,0.30
2022-08-03T09:19:31.991Z,0.40
2022-08-03T09:22:16.665Z,0.20
2022-08-03T09:25:23.185Z,0.32
2022-08-03T09:27:50.361Z,0.30
2022-08-03T09:30:34.767Z,0.22
2022-08-03T09:33:08.950Z,0.25
2022-08-03T09:35:53.587Z,0.22
2022-08-03T09:38:26.364Z,0.30
2022-08-03T09:40:59.450Z,0.20
2022-08-03T09:43:28.135Z,0.40
2022-08-03T09:46:04.815Z,0.22
2022-08-03T09:48:37.235Z,0.20
2022-08-03T09:51:13.867Z,0.30
2022-08-03T09:53:59.655Z,0.28
2022-08-03T09:56:44.665Z,0.40
2022-08-03T09:59:14.057Z,0.30
2022-08-03T10:01:41.931Z,0.30
2022-08-03T10:04:15.004Z,0.20
2022-08-03T10:06:43.295Z,0.30
2022-08-03T10:09:14.383Z,0.20
2022-08-03T10:11:43.680Z,0.25
2022-08-03T10:14:19.024Z,0.20
2022-08-03T10:16:47.812Z,0.20
2022-08-03T10:19:15.880Z,0.30
2022-08-03T10:21:51.238Z,0.30
2022-08-03T10:24:27.137Z,0.20
2022-08-03T10:27:23.649Z,0.25
2022-08-03T10:29:56.591Z,0.20
2022-08-03T10:32:38.537Z,0.30
2022-08-03T10:35:20.914Z,0.20
2022-08-03T10:38:12.379Z,0.20
2022-08-03T10:40:48.877Z,0.22
2022-08-03T10:43:36.294Z,0.30
2022-08-03T10:46:08.491Z,0.20
2022-08-03T10:48:36.985Z,0.15
2022-08-03T10:51:04.860Z,0.20
2022-08-03T10:53:54.834Z,0.30
2022-08-03T10:56:53.526Z,0.30
2022-08-03T10:59:46.119Z,0.20
2022-08-03T11:02:16.682Z,0.20
2022-08-03T11:04:47.044Z,0.20
2022-08-03T11:07:23.383Z,0.50
2022-08-03T11:09:56.571Z,0.30
2022-08-03T11:12:32.300Z,0.30
2022-08-03T11:15:09.013Z,0.25
2022-08-03T11:17:46.859Z,0.40
2022-08-03T11:20:49.994Z,0.20
2022-08-03T11:24:04.021Z,0.30
2022-08-03T11:26:25.131Z,0.57
2022-08-03T11:28:52.033Z,0.30
2022-08-03T11:31:49.793Z,0.20
2022-08-03T11:34:17.514Z,0.13
2022-08-03T11:37:23.332Z,0.25
2022-08-03T11:39:54.462Z,0.30
2022-08-03T11:42:24.685Z,0.20
2022-08-03T11:44:54.406Z,0.30
2022-08-03T11:47:23.180Z,0.22
2022-08-03T11:49:54.197Z,0.22
2022-08-03T11:52:26.975Z,0.20
2022-08-03T11:54:56.981Z,0.20
2022-08-03T11:59:01.746Z,0.20
2022-08-03T12:00:26.064Z,0.30
2022-08-03T12:03:12.272Z,0.30
2022-08-03T12:05:52.704Z,0.20
2022-08-03T12:08:34.292Z,0.30
2022-08-03T12:11:06.566Z,0.30
2022-08-03T12:14:33.127Z,0.30
2022-08-03T12:16:38.460Z,0.40
2022-08-03T12:19:09.227Z,0.25
2022-08-03T12:21:57.292Z,0.30
2022-08-03T12:24:25.013Z,0.52
2022-08-03T12:26:58.642Z,0.40
2022-08-03T12:29:27.172Z,0.40
2022-08-03T12:31:56.121Z,0.30
2022-08-03T12:34:23.404Z,0.40
2022-08-03T12:36:56.706Z,0.30
2022-08-03T12:39:26.601Z,0.30
2022-08-03T12:41:56.635Z,0.25
2022-08-03T12:44:36.122Z,0.40
2022-08-03T12:47:06.695Z,0.30
2022-08-03T12:49:47.369Z,0.40
2022-08-03T12:52:14.905Z,0.50
2022-08-03T12:54:42.490Z,0.38
2022-08-03T12:57:15.939Z,0.30
2022-08-03T12:59:53.708Z,0.30
2022-08-03T13:02:26.373Z,0.30
2022-08-03T13:04:54.933Z,0.30
2022-08-03T13:07:23.482Z,0.43
2022-08-03T13:09:54.058Z,0.52
2022-08-03T13:12:26.136Z,0.40
2022-08-03T13:14:57.181Z,0.30
2022-08-03T13:17:25.463Z,0.30
2022-08-03T13:19:53.495Z,0.30
2022-08-03T13:22:31.034Z,0.35
2022-08-03T13:24:58.211Z,0.40
2022-08-03T13:28:04.930Z,0.40
2022-08-03T13:30:14.568Z,0.20
2022-08-03T13:32:51.836Z,0.40
2022-08-03T13:35:18.703Z,0.30
2022-08-03T13:37:48.911Z,0.30
2022-08-03T13:40:16.052Z,0.32
2022-08-03T13:42:44.039Z,0.30
2022-08-03T13:45:11.402Z,0.30
2022-08-03T13:47:38.301Z,0.20
2022-08-03T13:50:05.619Z,0.30
2022-08-03T13:52:34.817Z,0.25
2022-08-03T13:55:07.018Z,0.30
2022-08-03T13:58:11.927Z,0.25
2022-08-03T14:00:28.941Z,0.47
2022-08-03T14:03:05.184Z,0.30
2022-08-03T14:05:35.786Z,0.40
2022-08-03T14:08:05.325Z,0.30
2022-08-03T14:10:37.602Z,0.20
2022-08-03T14:13:05.959Z,0.30
2022-08-03T14:15:37.991Z,0.25
2022-08-03T14:18:15.616Z,0.30
2022-08-03T14:23:25.703Z,0.20
2022-08-03T14:25:53.147Z,0.20
2022-08-03T14:28:25.094Z,0.30
2022-08-03T14:30:54.082Z,0.20
2022-08-03T14:35:48.987Z,0.35
2022-08-03T14:38:17.234Z,0.20
2022-08-03T14:40:44.686Z,0.28
2022-08-03T14:43:11.842Z,0.22
2022-08-03T14:45:40.102Z,0.40
2022-08-03T14:50:24.525Z,0.30
2022-08-03T14:50:55.160Z,0.30
2022-08-03T14:53:22.685Z,0.20
2022-08-03T14:55:51.976Z,0.30
2022-08-03T14:58:21.979Z,0.30
2022-08-03T15:00:51.660Z,0.20
2022-08-03T15:03:23.393Z,0.30
2022-08-03T15:05:52.945Z,0.20
2022-08-03T15:08:20.703Z,0.30
2022-08-03T15:10:49.139Z,0.30
2022-08-03T15:15:44.194Z,0.27
2022-08-03T15:18:11.386Z,0.43
2022-08-03T15:20:46.879Z,0.20
2022-08-03T15:23:15.929Z,0.28
2022-08-03T15:26:28.840Z,0.30
2022-08-03T15:28:32.450Z,0.22
2022-08-03T15:31:00.010Z,0.32
2022-08-03T15:33:26.932Z,0.32
2022-08-03T15:35:54.521Z,0.35
2022-08-03T15:38:26.021Z,0.32
2022-08-03T15:40:54.866Z,0.40
2022-08-03T15:43:23.630Z,0.30
2022-08-03T15:46:12.710Z,0.30
2022-08-03T15:48:37.938Z,0.20
2022-08-03T15:51:05.431Z,0.30
2022-08-03T15:53:33.591Z,0.30
2022-08-03T15:56:04.227Z,0.20
2022-08-03T15:59:09.545Z,0.80
2022-08-03T16:01:21.843Z,0.20
2022-08-03T16:03:48.782Z,0.22
2022-08-03T16:06:15.914Z,0.30
2022-08-03T16:08:43.269Z,0.30
2022-08-03T16:11:10.995Z,0.30
2022-08-03T16:14:13.872Z,0.38
2022-08-03T16:16:24.701Z,0.30
2022-08-03T16:18:51.572Z,0.22
2022-08-03T16:21:19.534Z,0.20
2022-08-03T16:23:50.104Z,0.20
2022-08-03T16:26:18.124Z,0.30
2022-08-03T16:28:44.994Z,0.45
2022-08-03T16:31:11.869Z,0.20
2022-08-03T16:33:38.727Z,0.30
2022-08-03T16:36:05.783Z,0.35
2022-08-03T16:38:32.714Z,0.30
2022-08-03T16:40:59.596Z,0.30
2022-08-03T16:43:26.548Z,0.40
2022-08-03T16:45:53.486Z,0.30
2022-08-03T16:48:20.567Z,0.30
2022-08-03T16:50:48.761Z,0.28
2022-08-03T16:53:16.858Z,0.40
2022-08-03T16:56:00.488Z,0.38
2022-08-03T16:58:41.367Z,0.32
2022-08-03T17:01:20.829Z,0.40
2022-08-03T17:04:03.479Z,0.30
2022-08-03T17:06:45.209Z,0.38
2022-08-03T17:09:21.085Z,0.30
2022-08-03T17:11:52.035Z,0.32
2022-08-03T17:14:22.849Z,0.68
2022-08-03T17:17:04.775Z,0.30
2022-08-03T17:19:40.489Z,0.50
2022-08-03T17:22:20.819Z,0.28
2022-08-03T17:24:54.043Z,0.25
2022-08-03T17:28:49.456Z,0.30
2022-08-03T17:30:18.929Z,0.40
2022-08-03T17:32:57.634Z,0.20
2022-08-03T17:35:34.301Z,0.33
2022-08-03T17:38:06.591Z,0.50
2022-08-03T17:40:34.823Z,0.35
2022-08-03T17:44:13.938Z,0.30
2022-08-03T17:45:54.950Z,0.50
2022-08-03T17:48:25.026Z,0.40
2022-08-03T17:51:00.789Z,0.47
2022-08-03T17:53:33.484Z,0.70
2022-08-03T17:56:44.313Z,0.60
2022-08-03T17:59:52.200Z,0.50
2022-08-03T18:02:54.576Z,0.50
2022-08-03T18:06:10.746Z,0.40
2022-08-03T18:08:41.838Z,0.22
2022-08-03T18:11:21.481Z,0.40
2022-08-03T18:14:04.842Z,0.40
2022-08-03T18:17:00.339Z,0.82
2022-08-03T18:20:03.367Z,0.50
2022-08-03T18:22:20.768Z,0.45
2022-08-03T18:24:50.040Z,0.50
2022-08-03T18:27:19.434Z,0.50
2022-08-03T18:29:47.200Z,0.60
2022-08-03T18:32:15.539Z,0.63
2022-08-03T18:34:53.508Z,0.50
2022-08-03T18:37:25.364Z,0.45
2022-08-03T18:39:57.996Z,0.60
2022-08-03T18:42:26.638Z,0.38
2022-08-03T18:44:56.366Z,0.43
2022-08-03T18:47:52.080Z,0.43
2022-08-03T18:50:22.805Z,0.55
2022-08-03T18:53:15.646Z,0.80
2022-08-03T18:56:10.952Z,0.65
2022-08-03T18:59:13.188Z,0.70
2022-08-03T19:02:00.361Z,0.70
2022-08-03T19:04:45.202Z,0.60
2022-08-03T19:07:23.296Z,0.68
2022-08-03T19:09:56.116Z,0.50
2022-08-03T19:12:39.572Z,0.73
2022-08-03T19:15:10.371Z,0.82
2022-08-03T19:17:53.008Z,0.60
2022-08-03T19:20:31.153Z,0.52
2022-08-03T19:23:00.334Z,0.80
2022-08-03T19:25:34.398Z,0.60
2022-08-03T19:28:06.188Z,0.70
2022-08-03T19:30:40.119Z,1.30
2022-08-03T19:33:14.420Z,1.00
2022-08-03T19:35:52.097Z,1.00
2022-08-03T19:38:28.256Z,1.00
2022-08-03T19:41:03.846Z,0.90
2022-08-03T19:43:52.580Z,0.70
2022-08-03T19:46:30.425Z,0.73
2022-08-03T19:49:15.286Z,0.80
2022-08-03T19:52:00.785Z,0.80
2022-08-03T19:54:45.887Z,1.00
2022-08-03T19:57:27.221Z,0.90
2022-08-03T19:59:56.132Z,0.98
2022-08-03T20:02:26.375Z,0.90
2022-08-03T20:04:59.995Z,1.00
2022-08-03T20:07:31.920Z,0.85
2022-08-03T20:10:02.104Z,0.95
2022-08-03T20:12:33.182Z,0.80
2022-08-03T20:15:05.811Z,1.20
2022-08-03T20:17:55.275Z,0.85
2022-08-03T20:20:31.071Z,0.85
2022-08-03T20:23:00.687Z,1.08
2022-08-03T20:25:57.309Z,1.03
2022-08-03T20:28:49.844Z,1.00
2022-08-03T20:31:21.636Z,0.70
2022-08-03T20:33:50.895Z,0.90
2022-08-03T20:36:18.988Z,0.90
2022-08-03T20:38:48.219Z,1.20
2022-08-03T20:41:17.507Z,1.27
2022-08-03T20:43:45.695Z,0.90
2022-08-03T20:46:30.813Z,1.00
2022-08-03T20:49:04.340Z,1.40
2022-08-03T20:51:49.945Z,0.90
2022-08-03T20:57:11.214Z,0.88
2022-08-03T20:59:50.167Z,1.00
2022-08-03T21:02:30.307Z,0.77
2022-08-03T21:05:03.702Z,1.10
2022-08-03T21:08:03.915Z,1.00
2022-08-03T21:10:33.976Z,0.80
2022-08-03T21:13:12.863Z,0.80
2022-08-03T21:13:23.303Z,0.93
2022-08-03T21:16:06.701Z,0.90
2022-08-03T21:18:51.291Z,1.02
2022-08-03T21:21:22.134Z,1.00
2022-08-03T21:23:52.965Z,0.95
2022-08-03T21:26:23.264Z,1.10
2022-08-03T21:28:52.623Z,0.85
2022-08-03T21:31:25.627Z,0.90
2022-08-03T21:34:05.662Z,1.00
2022-08-03T21:36:35.933Z,0.80
2022-08-03T21:39:08.291Z,0.80
2022-08-03T21:41:37.592Z,1.20
2022-08-03T21:44:06.142Z,0.88
2022-08-03T21:46:40.536Z,1.10
2022-08-03T21:50:07.443Z,0.60
2022-08-03T21:52:04.665Z,0.73
2022-08-03T21:54:40.132Z,1.10
2022-08-03T21:57:19.653Z,0.90
2022-08-03T21:59:57.274Z,1.00
2022-08-03T22:02:32.193Z,0.90
2022-08-03T22:04:59.503Z,0.93
2022-08-03T22:07:29.137Z,1.23
2022-08-03T22:09:58.830Z,1.20
2022-08-03T22:12:29.337Z,1.17
2022-08-03T22:15:01.278Z,0.95
2022-08-03T22:17:55.173Z,1.20
2022-08-03T22:20:21.525Z,0.85
2022-08-03T22:22:55.270Z,1.33
2022-08-03T22:25:29.346Z,0.90
2022-08-03T22:28:00.276Z,1.30
2022-08-03T22:32:56.245Z,0.90
2022-08-03T22:35:25.759Z,0.98
2022-08-03T22:37:56.114Z,0.90
2022-08-03T22:40:23.308Z,1.25
2022-08-03T22:42:52.412Z,0.90
2022-08-03T22:46:07.694Z,1.20
2022-08-03T22:48:09.018Z,1.17
2022-08-03T22:50:36.036Z,1.80
2022-08-03T22:53:03.663Z,1.20
2022-08-03T22:55:31.194Z,1.50
2022-08-03T22:57:58.068Z,1.52
2022-08-03T23:00:25.388Z,1.20
2022-08-03T23:02:56.810Z,1.30
2022-08-03T23:06:01.901Z,1.13
2022-08-03T23:08:25.719Z,1.20
2022-08-03T23:10:59.161Z,1.15
2022-08-03T23:13:33.026Z,1.35
2022-08-03T23:16:04.444Z,1.25
2022-08-03T23:18:37.710Z,1.10
2022-08-03T23:21:11.275Z,1.00
2022-08-03T23:23:44.632Z,0.90
2022-08-03T23:26:13.505Z,1.30
2022-08-03T23:28:46.965Z,1.55
2022-08-03T23:31:15.559Z,1.20
2022-08-03T23:33:45.841Z,1.35
2022-08-03T23:36:31.188Z,1.20
2022-08-03T23:39:02.366Z,1.08
2022-08-03T23:41:32.822Z,1.20
2022-08-03T23:44:03.757Z,1.30
2022-08-03T23:46:30.857Z,1.65
2022-08-03T23:49:00.974Z,1.20
2022-08-03T23:51:52.215Z,1.73
2022-08-03T23:54:45.918Z,1.33
2022-08-03T23:57:52.337Z,1.20
